createdAt,value
2019-06-08T00:00:20.721Z,969.52
2019-06-08T00:01:20.575Z,969.55
2019-06-08T00:02:20.687Z,969.55
2019-06-08T00:03:20.689Z,969.54
2019-06-08T00:04:20.655Z,969.51
2019-06-08T00:05:21.017Z,969.59
2019-06-08T00:06:20.785Z,969.61
2019-06-08T00:07:20.805Z,969.60
2019-06-08T00:08:20.884Z,969.62
2019-06-08T00:09:20.851Z,969.38
2019-06-08T00:10:22.717Z,969.43
2019-06-08T00:11:21.140Z,969.39
2019-06-08T00:12:19.608Z,969.30
2019-06-08T00:13:19.826Z,969.25
2019-06-08T00:14:19.580Z,969.20
2019-06-08T00:15:20.268Z,969.24
2019-06-08T00:16:19.559Z,969.19
2019-06-08T00:17:34.573Z,969.25
2019-06-08T00:18:21.541Z,969.30
2019-06-08T00:19:19.529Z,969.39
2019-06-08T00:20:19.799Z,969.28
2019-06-08T00:21:19.680Z,969.35
2019-06-08T00:22:19.800Z,969.44
2019-06-08T00:23:20.080Z,969.52
2019-06-08T00:24:19.898Z,969.56
2019-06-08T00:25:20.827Z,969.56
2019-06-08T00:26:20.060Z,969.56
2019-06-08T00:27:20.214Z,969.63
2019-06-08T00:28:20.447Z,969.81
2019-06-08T00:29:20.325Z,969.80
2019-06-08T00:30:19.421Z,969.74
2019-06-08T00:31:20.118Z,969.79
2019-06-08T00:32:20.343Z,969.72
2019-06-08T00:33:20.494Z,969.64
2019-06-08T00:34:20.443Z,969.81
2019-06-08T00:35:20.670Z,969.75
2019-06-08T00:36:19.337Z,969.84
2019-06-08T00:37:19.353Z,969.79
2019-06-08T00:38:19.345Z,969.92
2019-06-08T00:39:19.327Z,970.04
2019-06-08T00:40:19.337Z,969.86
2019-06-08T00:41:20.660Z,969.92
2019-06-08T00:42:19.371Z,969.82
2019-06-08T00:43:19.284Z,969.91
2019-06-08T00:44:19.321Z,969.88
2019-06-08T00:45:20.027Z,970.00
2019-06-08T00:46:19.437Z,969.98
2019-06-08T00:47:20.286Z,969.83
2019-06-08T00:48:19.813Z,969.76
2019-06-08T00:49:19.204Z,969.88
2019-06-08T00:50:19.217Z,969.87
2019-06-08T00:51:19.184Z,969.90
2019-06-08T00:52:19.194Z,969.95
2019-06-08T00:53:19.762Z,970.04
2019-06-08T00:54:19.311Z,969.97
2019-06-08T00:55:19.483Z,969.95
2019-06-08T00:56:19.424Z,970.01
2019-06-08T00:57:19.718Z,969.97
2019-06-08T00:58:20.394Z,969.97
2019-06-08T00:59:19.941Z,969.89
2019-06-08T01:00:20.424Z,969.94
2019-06-08T01:01:20.805Z,970.08
2019-06-08T01:02:20.151Z,970.14
2019-06-08T01:03:19.615Z,970.20
2019-06-08T01:04:19.042Z,970.28
2019-06-08T01:05:19.878Z,970.26
2019-06-08T01:06:19.054Z,970.34
2019-06-08T01:07:19.927Z,970.24
2019-06-08T01:08:20.663Z,970.17
2019-06-08T01:09:20.139Z,970.21
2019-06-08T01:10:19.233Z,970.22
2019-06-08T01:11:18.971Z,970.23
2019-06-08T01:12:19.034Z,970.22
2019-06-08T01:13:18.961Z,970.20
2019-06-08T01:14:18.974Z,970.07
2019-06-08T01:15:24.847Z,970.29
2019-06-08T01:16:20.933Z,970.29
2019-06-08T01:17:19.336Z,970.30
2019-06-08T01:18:20.749Z,970.31
2019-06-08T01:19:19.232Z,970.35
2019-06-08T01:20:19.481Z,970.37
2019-06-08T01:21:19.414Z,970.45
2019-06-08T01:22:19.495Z,970.52
2019-06-08T01:23:19.467Z,970.45
2019-06-08T01:24:19.640Z,970.46
2019-06-08T01:25:20.122Z,970.27
2019-06-08T01:26:19.809Z,970.31
2019-06-08T01:27:19.986Z,970.47
2019-06-08T01:28:19.936Z,970.48
2019-06-08T01:29:20.113Z,970.47
2019-06-08T01:30:20.000Z,970.50
2019-06-08T01:31:20.276Z,970.57
2019-06-08T01:32:18.767Z,970.50
2019-06-08T01:33:18.738Z,970.46
2019-06-08T01:34:18.709Z,970.41
2019-06-08T01:35:18.713Z,970.32
2019-06-08T01:36:18.698Z,970.29
2019-06-08T01:37:18.670Z,970.14
2019-06-08T01:38:18.715Z,970.25
2019-06-08T01:39:18.668Z,970.30
2019-06-08T01:40:18.647Z,970.21
2019-06-08T01:41:18.628Z,970.23
2019-06-08T01:42:18.618Z,970.30
2019-06-08T01:43:18.626Z,970.19
2019-06-08T01:44:18.590Z,970.21
2019-06-08T01:45:18.587Z,970.17
2019-06-08T01:46:18.590Z,970.23
2019-06-08T01:47:18.606Z,970.30
2019-06-08T01:48:20.541Z,970.26
2019-06-08T01:49:18.547Z,970.32
2019-06-08T01:50:18.526Z,970.37
2019-06-08T01:51:18.550Z,970.34
2019-06-08T01:52:18.503Z,970.44
2019-06-08T01:53:18.514Z,970.45
2019-06-08T01:54:18.476Z,970.40
2019-06-08T01:55:18.484Z,970.38
2019-06-08T01:56:18.464Z,970.53
2019-06-08T01:57:18.454Z,970.51
2019-06-08T01:58:18.446Z,970.42
2019-06-08T01:59:18.424Z,970.44
2019-06-08T02:00:29.679Z,970.37
2019-06-08T02:01:19.409Z,970.39
2019-06-08T02:02:18.402Z,970.38
2019-06-08T02:03:18.471Z,970.40
2019-06-08T02:04:18.375Z,970.44
2019-06-08T02:05:18.374Z,970.43
2019-06-08T02:06:18.479Z,970.40
2019-06-08T02:07:18.411Z,970.37
2019-06-08T02:08:18.408Z,970.29
2019-06-08T02:09:18.343Z,970.46
2019-06-08T02:10:18.328Z,970.52
2019-06-08T02:11:18.294Z,970.49
2019-06-08T02:12:18.283Z,970.63
2019-06-08T02:13:18.315Z,970.60
2019-06-08T02:14:18.271Z,970.54
2019-06-08T02:15:18.261Z,970.55
2019-06-08T02:16:18.243Z,970.40
2019-06-08T02:17:18.223Z,970.29
2019-06-08T02:18:18.243Z,970.20
2019-06-08T02:19:18.263Z,970.27
2019-06-08T02:20:18.212Z,970.25
2019-06-08T02:21:18.183Z,970.43
2019-06-08T02:22:18.172Z,970.52
2019-06-08T02:23:18.162Z,970.62
2019-06-08T02:24:18.163Z,970.62
2019-06-08T02:25:18.160Z,970.67
2019-06-08T02:26:18.122Z,970.59
2019-06-08T02:27:18.134Z,970.60
2019-06-08T02:28:18.105Z,970.49
2019-06-08T02:29:18.101Z,970.44
2019-06-08T02:30:18.082Z,970.48
2019-06-08T02:31:18.077Z,970.57
2019-06-08T02:32:18.062Z,970.55
2019-06-08T02:33:18.072Z,970.55
2019-06-08T02:34:18.059Z,970.63
2019-06-08T02:35:18.022Z,970.60
2019-06-08T02:36:18.019Z,970.56
2019-06-08T02:37:18.020Z,970.63
2019-06-08T02:38:17.990Z,970.45
2019-06-08T02:39:17.993Z,970.63
2019-06-08T02:40:17.971Z,970.62
2019-06-08T02:41:17.972Z,970.66
2019-06-08T02:42:17.982Z,970.61
2019-06-08T02:43:17.941Z,970.65
2019-06-08T02:44:17.941Z,970.70
2019-06-08T02:45:17.910Z,970.68
2019-06-08T02:46:17.922Z,970.84
2019-06-08T02:47:17.890Z,970.77
2019-06-08T02:48:17.881Z,970.86
2019-06-08T02:49:17.880Z,970.85
2019-06-08T02:50:17.860Z,970.79
2019-06-08T02:51:17.870Z,970.71
2019-06-08T02:52:17.839Z,970.74
2019-06-08T02:53:17.828Z,970.78
2019-06-08T02:54:17.829Z,970.81
2019-06-08T02:55:17.811Z,970.89
2019-06-08T02:56:17.820Z,970.92
2019-06-08T02:57:17.790Z,970.86
2019-06-08T02:58:17.771Z,970.96
2019-06-08T02:59:17.778Z,970.93
2019-06-08T03:00:17.758Z,970.97
2019-06-08T03:01:17.759Z,970.96
2019-06-08T03:02:17.736Z,970.97
2019-06-08T03:03:17.713Z,971.07
2019-06-08T03:04:17.712Z,971.01
2019-06-08T03:05:17.735Z,970.94
2019-06-08T03:06:17.685Z,970.76
2019-06-08T03:07:17.680Z,970.90
2019-06-08T03:08:17.693Z,970.96
2019-06-08T03:09:17.662Z,971.04
2019-06-08T03:10:17.660Z,970.97
2019-06-08T03:11:17.629Z,971.11
2019-06-08T03:12:17.608Z,971.13
2019-06-08T03:13:17.598Z,971.13
2019-06-08T03:14:17.586Z,971.11
2019-06-08T03:15:17.609Z,971.19
2019-06-08T03:16:17.581Z,971.11
2019-06-08T03:17:17.568Z,971.08
2019-06-08T03:18:17.546Z,971.18
2019-06-08T03:19:22.295Z,971.11
2019-06-08T03:20:18.557Z,971.10
2019-06-08T03:21:17.524Z,971.17
2019-06-08T03:22:17.505Z,971.21
2019-06-08T03:23:17.507Z,971.35
2019-06-08T03:24:17.485Z,971.28
2019-06-08T03:25:17.477Z,971.19
2019-06-08T03:26:17.466Z,971.19
2019-06-08T03:27:17.454Z,971.06
2019-06-08T03:28:17.436Z,971.14
2019-06-08T03:29:17.425Z,971.27
2019-06-08T03:30:19.365Z,971.17
2019-06-08T03:31:17.407Z,971.25
2019-06-08T03:32:17.395Z,971.18
2019-06-08T03:33:17.375Z,971.15
2019-06-08T03:34:17.395Z,971.24
2019-06-08T03:35:17.390Z,971.11
2019-06-08T03:36:17.365Z,971.12
2019-06-08T03:37:17.334Z,971.39
2019-06-08T03:38:17.334Z,971.24
2019-06-08T03:39:17.326Z,971.33
2019-06-08T03:40:17.322Z,971.32
2019-06-08T03:41:17.301Z,971.33
2019-06-08T03:42:17.284Z,971.47
2019-06-08T03:43:17.274Z,971.37
2019-06-08T03:44:17.271Z,971.36
2019-06-08T03:45:17.272Z,971.44
2019-06-08T03:46:17.256Z,971.43
2019-06-08T03:47:17.251Z,971.39
2019-06-08T03:48:17.223Z,971.51
2019-06-08T03:49:17.202Z,971.48
2019-06-08T03:50:17.212Z,971.51
2019-06-08T03:51:17.203Z,971.49
2019-06-08T03:52:17.180Z,971.52
2019-06-08T03:53:17.164Z,971.55
2019-06-08T03:54:17.160Z,971.61
2019-06-08T03:55:17.164Z,971.58
2019-06-08T03:56:17.132Z,971.61
2019-06-08T03:57:17.143Z,971.64
2019-06-08T03:58:17.111Z,971.62
2019-06-08T03:59:17.102Z,971.58
2019-06-08T04:00:17.128Z,971.63
2019-06-08T04:01:17.097Z,971.67
2019-06-08T04:02:17.070Z,971.62
2019-06-08T04:03:17.059Z,971.76
2019-06-08T04:04:17.054Z,971.66
2019-06-08T04:05:17.031Z,971.64
2019-06-08T04:06:17.053Z,971.69
2019-06-08T04:07:17.010Z,971.74
2019-06-08T04:08:17.009Z,971.64
2019-06-08T04:09:16.991Z,971.70
2019-06-08T04:10:16.979Z,971.68
2019-06-08T04:11:16.980Z,971.65
2019-06-08T04:12:16.961Z,971.68
2019-06-08T04:13:16.940Z,971.73
2019-06-08T04:14:16.948Z,971.67
2019-06-08T04:15:16.920Z,971.73
2019-06-08T04:16:16.927Z,971.80
2019-06-08T04:17:16.898Z,971.94
2019-06-08T04:18:16.889Z,971.97
2019-06-08T04:19:16.897Z,971.96
2019-06-08T04:20:16.868Z,971.91
2019-06-08T04:21:16.868Z,971.92
2019-06-08T04:22:16.856Z,971.95
2019-06-08T04:23:16.861Z,971.90
2019-06-08T04:24:16.828Z,971.88
2019-06-08T04:25:16.825Z,972.01
2019-06-08T04:26:16.862Z,972.01
2019-06-08T04:27:16.799Z,972.05
2019-06-08T04:28:16.779Z,972.07
2019-06-08T04:29:16.786Z,972.04
2019-06-08T04:30:16.756Z,971.99
2019-06-08T04:31:16.775Z,972.02
2019-06-08T04:32:16.753Z,971.97
2019-06-08T04:33:16.735Z,972.10
2019-06-08T04:34:16.742Z,972.05
2019-06-08T04:35:16.706Z,972.08
2019-06-08T04:36:16.707Z,972.13
2019-06-08T04:37:16.695Z,972.17
2019-06-08T04:38:16.695Z,972.06
2019-06-08T04:39:16.680Z,972.19
2019-06-08T04:40:16.658Z,972.22
2019-06-08T04:41:16.658Z,972.20
2019-06-08T04:42:16.639Z,972.17
2019-06-08T04:43:16.626Z,972.23
2019-06-08T04:44:16.670Z,972.21
2019-06-08T04:45:16.594Z,972.27
2019-06-08T04:46:16.607Z,972.22
2019-06-08T04:47:16.584Z,972.25
2019-06-08T04:48:16.572Z,972.26
2019-06-08T04:49:16.563Z,972.31
2019-06-08T04:50:23.501Z,972.29
2019-06-08T04:51:17.556Z,972.36
2019-06-08T04:52:16.539Z,972.35
2019-06-08T04:53:16.515Z,972.38
2019-06-08T04:54:16.507Z,972.36
2019-06-08T04:55:16.523Z,972.33
2019-06-08T04:56:16.497Z,972.39
2019-06-08T04:57:16.475Z,972.31
2019-06-08T04:58:16.496Z,972.47
2019-06-08T04:59:16.455Z,972.46
2019-06-08T05:00:16.454Z,972.32
2019-06-08T05:01:16.443Z,972.37
2019-06-08T05:02:16.424Z,972.46
2019-06-08T05:03:16.412Z,972.54
2019-06-08T05:04:16.403Z,972.50
2019-06-08T05:05:16.394Z,972.55
2019-06-08T05:06:16.429Z,972.51
2019-06-08T05:07:16.364Z,972.55
2019-06-08T05:08:16.355Z,972.46
2019-06-08T05:09:16.358Z,972.59
2019-06-08T05:10:16.349Z,972.53
2019-06-08T05:11:16.352Z,972.62
2019-06-08T05:12:16.324Z,972.56
2019-06-08T05:13:16.302Z,972.56
2019-06-08T05:14:16.292Z,972.58
2019-06-08T05:15:16.281Z,972.61
2019-06-08T05:16:16.282Z,972.62
2019-06-08T05:17:16.282Z,972.63
2019-06-08T05:18:16.253Z,972.62
2019-06-08T05:19:16.240Z,972.54
2019-06-08T05:20:16.233Z,972.56
2019-06-08T05:21:16.240Z,972.66
2019-06-08T05:22:16.210Z,972.62
2019-06-08T05:23:16.199Z,972.62
2019-06-08T05:24:16.218Z,972.72
2019-06-08T05:25:16.189Z,972.71
2019-06-08T05:26:16.181Z,972.68
2019-06-08T05:27:16.159Z,972.71
2019-06-08T05:28:16.140Z,972.77
2019-06-08T05:29:16.130Z,972.85
2019-06-08T05:30:16.119Z,972.77
2019-06-08T05:31:16.139Z,972.92
2019-06-08T05:32:16.112Z,972.91
2019-06-08T05:33:16.091Z,972.99
2019-06-08T05:34:16.078Z,972.91
2019-06-08T05:35:16.079Z,973.04
2019-06-08T05:36:16.058Z,973.03
2019-06-08T05:37:16.058Z,972.98
2019-06-08T05:38:16.040Z,972.95
2019-06-08T05:39:16.026Z,973.01
2019-06-08T05:40:16.023Z,973.05
2019-06-08T05:41:15.999Z,973.10
2019-06-08T05:42:15.997Z,973.07
2019-06-08T05:43:15.977Z,973.10
2019-06-08T05:44:15.978Z,973.11
2019-06-08T05:45:15.960Z,973.09
2019-06-08T05:46:15.955Z,973.06
2019-06-08T05:47:15.948Z,973.11
2019-06-08T05:48:15.929Z,973.09
2019-06-08T05:49:15.917Z,973.15
2019-06-08T05:50:15.908Z,973.18
2019-06-08T05:51:15.905Z,973.22
2019-06-08T05:52:15.886Z,973.20
2019-06-08T05:53:15.866Z,973.15
2019-06-08T05:54:15.856Z,973.27
2019-06-08T05:55:15.848Z,973.26
2019-06-08T05:56:15.836Z,973.19
2019-06-08T05:57:15.848Z,973.21
2019-06-08T05:58:15.806Z,973.28
2019-06-08T05:59:15.805Z,973.32
2019-06-08T06:00:15.795Z,973.32
2019-06-08T06:01:23.574Z,973.29
2019-06-08T06:02:15.803Z,973.26
2019-06-08T06:03:15.766Z,973.23
2019-06-08T06:04:15.743Z,973.30
2019-06-08T06:05:15.734Z,973.35
2019-06-08T06:06:15.724Z,973.36
2019-06-08T06:07:15.723Z,973.29
2019-06-08T06:08:18.946Z,973.34
2019-06-08T06:09:15.692Z,973.29
2019-06-08T06:10:15.683Z,973.35
2019-06-08T06:11:15.671Z,973.25
2019-06-08T06:12:15.672Z,973.35
2019-06-08T06:13:15.644Z,973.32
2019-06-08T06:14:15.641Z,973.37
2019-06-08T06:15:15.632Z,973.37
2019-06-08T06:16:15.612Z,973.43
2019-06-08T06:17:15.620Z,973.22
2019-06-08T06:18:15.603Z,973.28
2019-06-08T06:19:15.581Z,973.38
2019-06-08T06:20:15.580Z,973.25
2019-06-08T06:21:15.561Z,973.34
2019-06-08T06:22:15.562Z,973.23
2019-06-08T06:23:15.541Z,973.28
2019-06-08T06:24:15.541Z,973.24
2019-06-08T06:25:15.539Z,973.33
2019-06-08T06:26:15.506Z,973.34
2019-06-08T06:27:15.490Z,973.28
2019-06-08T06:28:15.495Z,973.30
2019-06-08T06:29:15.470Z,973.26
2019-06-08T06:30:15.469Z,973.32
2019-06-08T06:31:15.454Z,973.33
2019-06-08T06:32:15.440Z,973.21
2019-06-08T06:33:15.456Z,973.35
2019-06-08T06:34:15.421Z,973.30
2019-06-08T06:35:15.400Z,973.32
2019-06-08T06:36:15.389Z,973.36
2019-06-08T06:37:15.382Z,973.43
2019-06-08T06:38:15.382Z,973.53
2019-06-08T06:39:15.362Z,973.23
2019-06-08T06:40:15.346Z,973.44
2019-06-08T06:41:15.329Z,973.43
2019-06-08T06:42:15.329Z,973.39
2019-06-08T06:43:15.319Z,973.33
2019-06-08T06:44:15.299Z,973.54
2019-06-08T06:45:15.298Z,973.38
2019-06-08T06:46:15.279Z,973.36
2019-06-08T06:47:15.269Z,973.50
2019-06-08T06:48:15.267Z,973.50
2019-06-08T06:49:15.241Z,973.60
2019-06-08T06:50:15.248Z,973.60
2019-06-08T06:51:25.709Z,973.46
2019-06-08T06:52:16.208Z,973.54
2019-06-08T06:53:15.217Z,973.53
2019-06-08T06:54:15.196Z,973.54
2019-06-08T06:55:15.176Z,973.55
2019-06-08T06:56:15.166Z,973.58
2019-06-08T06:57:15.157Z,973.54
2019-06-08T06:58:15.147Z,973.46
2019-06-08T06:59:15.127Z,973.51
2019-06-08T07:00:15.117Z,973.45
2019-06-08T07:01:15.107Z,973.53
2019-06-08T07:02:15.097Z,973.57
2019-06-08T07:03:15.097Z,973.57
2019-06-08T07:04:15.066Z,973.58
2019-06-08T07:05:15.064Z,973.53
2019-06-08T07:06:15.046Z,973.57
2019-06-08T07:07:15.035Z,973.73
2019-06-08T07:08:15.035Z,973.91
2019-06-08T07:09:15.025Z,973.69
2019-06-08T07:10:14.995Z,973.89
2019-06-08T07:11:14.985Z,973.41
2019-06-08T07:12:14.975Z,973.66
2019-06-08T07:13:14.975Z,973.55
2019-06-08T07:14:14.954Z,973.56
2019-06-08T07:15:15.009Z,973.53
2019-06-08T07:16:18.862Z,973.53
2019-06-08T07:17:15.170Z,973.63
2019-06-08T07:18:14.924Z,973.75
2019-06-08T07:19:14.910Z,973.77
2019-06-08T07:20:14.932Z,973.73
2019-06-08T07:21:14.878Z,973.70
2019-06-08T07:22:14.858Z,973.74
2019-06-08T07:23:14.865Z,973.79
2019-06-08T07:24:14.833Z,973.87
2019-06-08T07:25:14.822Z,973.86
2019-06-08T07:26:14.804Z,973.91
2019-06-08T07:27:14.805Z,973.69
2019-06-08T07:28:14.814Z,973.63
2019-06-08T07:29:16.026Z,973.69
2019-06-08T07:30:14.769Z,973.75
2019-06-08T07:31:14.742Z,973.80
2019-06-08T07:32:14.743Z,973.70
2019-06-08T07:33:14.724Z,973.79
2019-06-08T07:34:14.722Z,973.74
2019-06-08T07:35:14.693Z,973.74
2019-06-08T07:36:14.682Z,973.81
2019-06-08T07:37:14.672Z,973.85
2019-06-08T07:38:14.662Z,973.82
2019-06-08T07:39:14.662Z,973.88
2019-06-08T07:40:14.641Z,973.90
2019-06-08T07:41:14.630Z,973.92
2019-06-08T07:42:14.621Z,973.93
2019-06-08T07:43:14.612Z,974.04
2019-06-08T07:44:14.606Z,974.11
2019-06-08T07:45:14.580Z,973.98
2019-06-08T07:46:14.561Z,973.91
2019-06-08T07:47:14.561Z,973.99
2019-06-08T07:48:14.542Z,973.98
2019-06-08T07:49:14.548Z,973.90
2019-06-08T07:50:14.520Z,973.92
2019-06-08T07:51:14.512Z,973.79
2019-06-08T07:52:14.492Z,973.89
2019-06-08T07:53:14.489Z,973.96
2019-06-08T07:54:14.491Z,973.81
2019-06-08T07:55:14.459Z,973.78
2019-06-08T07:56:14.450Z,974.02
2019-06-08T07:57:14.438Z,973.85
2019-06-08T07:58:14.428Z,973.85
2019-06-08T07:59:14.432Z,974.02
2019-06-08T08:00:14.399Z,974.15
2019-06-08T08:01:14.398Z,973.90
2019-06-08T08:02:14.378Z,973.87
2019-06-08T08:03:14.369Z,973.89
2019-06-08T08:04:14.368Z,973.82
2019-06-08T08:05:14.351Z,973.88
2019-06-08T08:06:14.338Z,973.73
2019-06-08T08:07:14.330Z,973.90
2019-06-08T08:08:14.308Z,973.82
2019-06-08T08:09:14.309Z,973.57
2019-06-08T08:10:14.456Z,973.83
2019-06-08T08:11:14.277Z,973.94
2019-06-08T08:12:14.269Z,973.76
2019-06-08T08:13:14.259Z,973.89
2019-06-08T08:14:14.258Z,973.85
2019-06-08T08:15:14.236Z,973.80
2019-06-08T08:16:14.218Z,973.83
2019-06-08T08:17:14.209Z,973.82
2019-06-08T08:18:14.197Z,973.75
2019-06-08T08:19:14.201Z,973.83
2019-06-08T08:20:14.175Z,973.88
2019-06-08T08:21:22.144Z,973.84
2019-06-08T08:22:23.141Z,973.87
2019-06-08T08:23:17.273Z,973.89
2019-06-08T08:24:14.137Z,973.72
2019-06-08T08:25:14.121Z,974.11
2019-06-08T08:26:14.106Z,974.20
2019-06-08T08:27:14.096Z,974.11
2019-06-08T08:28:14.076Z,973.84
2019-06-08T08:29:14.077Z,973.91
2019-06-08T08:30:14.056Z,973.85
2019-06-08T08:31:15.365Z,973.96
2019-06-08T08:32:14.035Z,974.19
2019-06-08T08:33:14.026Z,974.18
2019-06-08T08:34:14.024Z,974.06
2019-06-08T08:35:13.995Z,973.94
2019-06-08T08:36:13.986Z,974.07
2019-06-08T08:37:13.975Z,974.00
2019-06-08T08:38:13.965Z,974.03
2019-06-08T08:39:13.965Z,974.13
2019-06-08T08:40:13.934Z,974.17
2019-06-08T08:41:13.946Z,973.94
2019-06-08T08:42:13.923Z,973.84
2019-06-08T08:43:13.905Z,974.10
2019-06-08T08:44:13.905Z,974.00
2019-06-08T08:45:13.884Z,973.92
2019-06-08T08:46:13.874Z,974.13
2019-06-08T08:47:13.863Z,974.03
2019-06-08T08:48:24.602Z,974.03
2019-06-08T08:49:14.844Z,974.09
2019-06-08T08:50:13.823Z,974.05
2019-06-08T08:51:13.814Z,973.90
2019-06-08T08:52:13.803Z,974.06
2019-06-08T08:53:13.783Z,974.07
2019-06-08T08:54:13.811Z,974.08
2019-06-08T08:55:13.773Z,973.99
2019-06-08T08:56:13.760Z,974.00
2019-06-08T08:57:13.742Z,974.01
2019-06-08T08:58:13.731Z,974.03
2019-06-08T08:59:13.723Z,973.98
2019-06-08T09:00:13.722Z,973.97
2019-06-08T09:01:13.697Z,973.96
2019-06-08T09:02:13.694Z,974.08
2019-06-08T09:03:26.048Z,974.20
2019-06-08T09:04:14.663Z,974.20
2019-06-08T09:05:13.661Z,974.13
2019-06-08T09:06:13.632Z,974.23
2019-06-08T09:07:13.622Z,974.14
2019-06-08T09:08:13.617Z,974.11
2019-06-08T09:09:13.612Z,974.09
2019-06-08T09:10:13.600Z,974.07
2019-06-08T09:11:13.572Z,974.35
2019-06-08T09:12:13.564Z,974.13
2019-06-08T09:13:13.552Z,974.10
2019-06-08T09:14:14.382Z,974.29
2019-06-08T09:15:13.547Z,974.20
2019-06-08T09:16:13.521Z,973.99
2019-06-08T09:17:13.502Z,974.21
2019-06-08T09:18:13.498Z,974.30
2019-06-08T09:19:13.471Z,974.19
2019-06-08T09:20:15.860Z,974.21
2019-06-08T09:21:14.451Z,974.19
2019-06-08T09:22:13.443Z,974.22
2019-06-08T09:23:16.633Z,974.14
2019-06-08T09:24:14.411Z,974.17
2019-06-08T09:25:13.755Z,974.15
2019-06-08T09:26:13.474Z,974.23
2019-06-08T09:27:13.380Z,974.19
2019-06-08T09:28:13.370Z,974.10
2019-06-08T09:29:13.404Z,974.39
2019-06-08T09:30:13.350Z,974.30
2019-06-08T09:31:13.349Z,974.32
2019-06-08T09:32:13.319Z,974.29
2019-06-08T09:33:13.309Z,974.22
2019-06-08T09:34:15.404Z,974.28
2019-06-08T09:35:13.289Z,974.18
2019-06-08T09:36:13.271Z,974.17
2019-06-08T09:37:13.266Z,974.31
2019-06-08T09:38:13.243Z,974.47
2019-06-08T09:39:13.688Z,974.56
2019-06-08T09:40:13.245Z,974.42
2019-06-08T09:41:13.207Z,974.21
2019-06-08T09:42:13.194Z,974.14
2019-06-08T09:43:13.497Z,974.17
2019-06-08T09:44:13.227Z,974.16
2019-06-08T09:45:13.180Z,974.37
2019-06-08T09:46:13.138Z,974.29
2019-06-08T09:47:13.217Z,974.19
2019-06-08T09:48:13.118Z,974.16
2019-06-08T09:49:13.127Z,974.18
2019-06-08T09:50:13.099Z,974.19
2019-06-08T09:51:13.078Z,974.04
2019-06-08T09:52:13.062Z,974.04
2019-06-08T09:53:23.771Z,974.08
2019-06-08T09:54:14.105Z,974.01
2019-06-08T09:55:13.057Z,973.93
2019-06-08T09:56:13.027Z,973.90
2019-06-08T09:57:12.999Z,974.08
2019-06-08T09:58:13.003Z,973.92
2019-06-08T09:59:15.261Z,973.88
2019-06-08T10:00:18.302Z,973.98
2019-06-08T10:01:13.957Z,974.00
2019-06-08T10:02:13.302Z,974.07
2019-06-08T10:03:12.990Z,974.06
2019-06-08T10:04:12.922Z,974.05
2019-06-08T10:05:12.897Z,973.99
2019-06-08T10:06:12.909Z,974.15
2019-06-08T10:07:12.876Z,974.17
2019-06-08T10:08:12.856Z,974.17
2019-06-08T10:09:12.854Z,974.24
2019-06-08T10:10:12.849Z,974.11
2019-06-08T10:11:12.837Z,974.12
2019-06-08T10:12:12.817Z,974.12
2019-06-08T10:13:12.813Z,974.18
2019-06-08T10:14:13.038Z,974.13
2019-06-08T10:15:12.844Z,974.08
2019-06-08T10:16:12.786Z,974.12
2019-06-08T10:17:12.755Z,974.16
2019-06-08T10:18:12.737Z,974.15
2019-06-08T10:19:12.725Z,974.11
2019-06-08T10:20:12.719Z,974.21
2019-06-08T10:21:12.769Z,974.15
2019-06-08T10:22:12.685Z,974.19
2019-06-08T10:23:30.368Z,974.09
2019-06-08T10:24:13.664Z,974.04
2019-06-08T10:25:12.645Z,974.13
2019-06-08T10:26:12.653Z,974.12
2019-06-08T10:27:12.635Z,974.23
2019-06-08T10:28:15.875Z,974.27
2019-06-08T10:29:13.595Z,974.07
2019-06-08T10:30:12.588Z,974.24
2019-06-08T10:31:12.587Z,974.18
2019-06-08T10:32:12.583Z,973.95
2019-06-08T10:33:12.544Z,974.01
2019-06-08T10:34:12.550Z,974.14
2019-06-08T10:35:12.527Z,974.10
2019-06-08T10:36:13.076Z,974.17
2019-06-08T10:37:13.500Z,974.05
2019-06-08T10:38:12.484Z,974.02
2019-06-08T10:39:12.484Z,974.01
2019-06-08T10:40:12.465Z,974.02
2019-06-08T10:41:20.914Z,974.09
2019-06-08T10:42:13.449Z,974.09
2019-06-08T10:43:12.424Z,974.16
2019-06-08T10:44:14.311Z,974.11
2019-06-08T10:45:14.742Z,974.16
2019-06-08T10:46:17.127Z,974.10
2019-06-08T10:47:13.371Z,974.07
2019-06-08T10:48:12.363Z,974.02
2019-06-08T10:49:14.216Z,974.04
2019-06-08T10:50:15.419Z,973.99
2019-06-08T10:51:13.118Z,974.12
2019-06-08T10:52:12.523Z,974.12
2019-06-08T10:53:13.671Z,974.20
2019-06-08T10:54:12.302Z,974.23
2019-06-08T10:55:12.651Z,974.16
2019-06-08T10:56:12.565Z,974.16
2019-06-08T10:57:12.308Z,974.17
2019-06-08T10:58:12.235Z,974.08
2019-06-08T10:59:12.546Z,974.05
2019-06-08T11:00:20.116Z,974.03
2019-06-08T11:01:13.572Z,974.14
2019-06-08T11:02:14.203Z,974.23
2019-06-08T11:03:12.184Z,974.16
2019-06-08T11:04:12.185Z,974.20
2019-06-08T11:05:14.053Z,974.14
2019-06-08T11:06:13.319Z,974.15
2019-06-08T11:07:15.533Z,974.28
2019-06-08T11:08:14.456Z,974.13
2019-06-08T11:09:14.836Z,974.14
2019-06-08T11:10:12.653Z,974.16
2019-06-08T11:11:12.141Z,974.20
2019-06-08T11:12:14.943Z,974.21
2019-06-08T11:13:14.889Z,974.02
2019-06-08T11:14:13.173Z,974.09
2019-06-08T11:15:12.036Z,973.96
2019-06-08T11:16:13.258Z,974.02
2019-06-08T11:17:12.015Z,974.04
2019-06-08T11:18:13.540Z,974.03
2019-06-08T11:19:13.761Z,974.02
2019-06-08T11:20:13.677Z,974.09
2019-06-08T11:21:12.879Z,974.10
2019-06-08T11:22:14.436Z,974.18
2019-06-08T11:23:12.560Z,974.01
2019-06-08T11:24:23.316Z,974.07
2019-06-08T11:25:16.142Z,974.01
2019-06-08T11:26:19.719Z,974.05
2019-06-08T11:27:13.200Z,974.05
2019-06-08T11:28:14.973Z,974.06
2019-06-08T11:29:13.831Z,974.06
2019-06-08T11:30:20.385Z,974.18
2019-06-08T11:31:15.839Z,974.14
2019-06-08T11:32:12.811Z,974.04
2019-06-08T11:33:12.565Z,974.08
2019-06-08T11:34:12.768Z,974.06
2019-06-08T11:35:12.660Z,974.10
2019-06-08T11:36:14.950Z,974.13
2019-06-08T11:37:13.583Z,974.07
2019-06-08T11:38:12.756Z,974.19
2019-06-08T11:39:12.790Z,974.22
2019-06-08T11:40:12.978Z,974.15
2019-06-08T11:41:13.630Z,974.05
2019-06-08T11:42:13.064Z,974.09
2019-06-08T11:43:12.778Z,974.29
2019-06-08T11:44:14.675Z,974.13
2019-06-08T11:45:13.056Z,974.11
2019-06-08T11:46:12.788Z,974.08
2019-06-08T11:47:13.350Z,974.10
2019-06-08T11:48:12.398Z,974.01
2019-06-08T11:49:14.884Z,974.00
2019-06-08T11:50:13.266Z,973.98
2019-06-08T11:51:12.989Z,974.00
2019-06-08T11:52:11.626Z,974.11
2019-06-08T11:53:14.390Z,974.01
2019-06-08T11:54:27.115Z,974.06
2019-06-08T11:55:13.156Z,974.04
2019-06-08T11:56:13.425Z,974.02
2019-06-08T11:57:12.907Z,974.06
2019-06-08T11:58:13.668Z,973.90
2019-06-08T11:59:14.225Z,973.94
2019-06-08T12:00:24.301Z,973.86
2019-06-08T19:37:36.284Z,974.13
2019-06-08T19:38:38.436Z,974.10
2019-06-08T19:39:36.262Z,974.13
2019-06-08T19:40:37.894Z,974.17
2019-06-08T19:41:38.113Z,974.23
2019-06-08T19:42:44.708Z,974.23
2019-06-08T19:43:39.045Z,974.17
2019-06-08T19:44:38.574Z,974.19
2019-06-08T19:45:39.963Z,974.20
2019-06-08T19:46:36.171Z,974.24
2019-06-08T19:47:36.151Z,974.21
2019-06-08T19:48:36.981Z,974.26
2019-06-08T19:49:38.296Z,974.30
2019-06-08T19:50:38.208Z,974.27
2019-06-08T19:51:38.234Z,974.30
2019-06-08T19:52:41.013Z,974.31
2019-06-08T19:53:42.215Z,974.37
2019-06-08T19:54:38.691Z,974.38
2019-06-08T19:55:36.075Z,974.34
2019-06-08T19:56:38.590Z,974.33
2019-06-08T19:57:36.239Z,974.34
2019-06-08T19:58:50.045Z,974.27
2019-06-08T19:59:38.254Z,974.37
2019-06-08T20:00:38.660Z,974.38
2019-06-08T20:01:37.931Z,974.45
2019-06-08T20:02:36.039Z,974.48
2019-06-08T20:03:37.893Z,974.45
2019-06-08T20:04:38.473Z,974.46